Time;durP1;ratioP1;P1;durP2;ratioP2;P2;SDS_P1;SDS_P2;PMS_P1;PMS_P2;Temp;Humidity;BMP_temperature;BMP_pressure;BME280_temperature;BME280_humidity;BME280_pressure;Samples;Min_cycle;Max_cycle;Signal;HPM_P1;HPM_P2
2021/12/16 00:09:00;;;;;;;;;;;;;;;;;;7393737;19;19925;-67
2021/12/16 00:33:32;;;;;;;;;;;;;;;;;;7393444;19;19919;-67
2021/12/16 00:36:00;;;;;;;;;;;;;;;;;;7392372;19;19922;-66
2021/12/16 00:38:28;;;;;;;;;;;;;;;;;;7391397;19;19926;-66
2021/12/16 00:40:56;;;;;;;;;;;;;;;;;;7391123;19;19918;-66
2021/12/16 00:43:33;;;;;;;;;;;;;;;;;;7391301;19;19975;-66
2021/12/16 00:49:03;;;;;;;;;;;;;;;;;;7392961;19;19915;-67
2021/12/16 00:54:12;;;;;;;;;;;;;;;;;;7390263;19;19915;-66
2021/12/16 00:57:03;;;;;;;;;;;;;;;;;;7392547;19;19922;-67
2021/12/16 00:59:36;;;;;;;;;;;;;;;;;;7390669;19;19915;-67
2021/12/16 01:05:21;;;;;;;;;;;;;;;;;;7393437;19;19911;-66
2021/12/16 01:49:37;;;;;;;;;;;;;;;;;;7398393;19;19926;-63
2021/12/16 01:52:36;;;;;;;;;;;;;;;;;;7398170;19;19923;-64
2021/12/16 01:57:36;;;;;;;;;;;;;;;;;;7396755;19;19926;-65
2021/12/16 02:00:08;;;;;;;;;;;;;;;;;;7395974;19;19918;-63
2021/12/16 02:02:47;;;;;;;;;;;;;;;;;;7398012;19;20049;-65
2021/12/16 02:10:38;;;;;;;;;;;;;;;;;;7395598;19;19915;-65
2021/12/16 02:37:33;;;;;;;;;;;;;;;;;;7399889;19;19919;-67
2021/12/16 02:40:01;;;;;;;;;;;;;;;;;;7396770;19;19915;-66
2021/12/16 02:42:40;;;;;;;;;;;;;;;;;;7394909;19;20386;-67
2021/12/16 02:50:41;;;;;;;;;;;;;;;;;;7396120;19;20295;-66
2021/12/16 02:53:09;;;;;;;;;;;;;;;;;;7396426;19;20353;-67
2021/12/16 02:55:36;;;;;;;;;;;;;;;;;;7393892;19;19994;-66
2021/12/16 02:58:04;;;;;;;;;;;;;;;;;;7394725;19;19938;-66
2021/12/16 03:00:35;;;;;;;;;;;;;;;;;;7395936;19;19929;-66
2021/12/16 03:03:03;;;;;;;;;;;;;;;;;;7394567;19;19925;-66
2021/12/16 03:05:31;;;;;;;;;;;;;;;;;;7395623;19;20421;-66
2021/12/16 03:07:59;;;;;;;;;;;;;;;;;;7395075;19;19915;-66
2021/12/16 03:13:08;;;;;;;;;;;;;;;;;;7393986;19;19936;-67
2021/12/16 03:20:45;;;;;;;;;;;;;;;;;;7393471;19;19939;-66
2021/12/16 03:23:27;;;;;;;;;;;;;;;;;;7395481;19;19921;-65
2021/12/16 03:26:26;;;;;;;;;;;;;;;;;;7395211;19;19918;-66
2021/12/16 03:34:41;;;;;;;;;;;;;;;;;;7393396;19;19940;-67
2021/12/16 03:39:40;;;;;;;;;;;;;;;;;;7394627;19;19914;-67
2021/12/16 03:42:07;;;;;;;;;;;;;;;;;;7392796;19;20408;-67
2021/12/16 03:44:53;;;;;;;;;;;;;;;;;;7393305;19;19986;-67
2021/12/16 03:47:26;;;;;;;;;;;;;;;;;;7391912;19;19926;-67
2021/12/16 03:49:54;;;;;;;;;;;;;;;;;;7393037;19;19926;-67
2021/12/16 03:52:23;;;;;;;;;;;;;;;;;;7391952;19;19923;-68
2021/12/16 03:54:51;;;;;;;;;;;;;;;;;;7392564;19;19930;-67
2021/12/16 03:57:24;;;;;;;;;;;;;;;;;;7393880;19;20237;-67
2021/12/16 03:59:53;;;;;;;;;;;;;;;;;;7392541;19;20290;-67
2021/12/16 04:02:40;;;;;;;;;;;;;;;;;;7391666;19;19926;-68
2021/12/16 04:05:08;;;;;;;;;;;;;;;;;;7393287;19;19945;-67
2021/12/16 04:07:39;;;;;;;;;;;;;;;;;;7393267;19;19923;-68
2021/12/16 04:10:19;;;;;;;;;;;;;;;;;;7393973;19;19942;-68
2021/12/16 04:12:49;;;;;;;;;;;;;;;;;;7394163;19;19934;-67
2021/12/16 04:15:16;;;;;;;;;;;;;;;;;;7392777;19;19915;-67
2021/12/16 04:17:48;;;;;;;;;;;;;;;;;;7393685;19;19918;-67
2021/12/16 04:20:16;;;;;;;;;;;;;;;;;;7392168;19;19919;-67
2021/12/16 04:22:45;;;;;;;;;;;;;;;;;;7394574;19;19915;-67
2021/12/16 04:25:20;;;;;;;;;;;;;;;;;;7393052;19;19933;-68
2021/12/16 04:27:49;;;;;;;;;;;;;;;;;;7390673;19;19925;-68
2021/12/16 04:30:18;;;;;;;;;;;;;;;;;;7391959;19;19914;-68
2021/12/16 04:32:45;;;;;;;;;;;;;;;;;;7393618;19;19922;-67
2021/12/16 04:35:13;;;;;;;;;;;;;;;;;;7392561;19;19915;-67
2021/12/16 04:37:45;;;;;;;;;;;;;;;;;;7391613;19;19939;-70
2021/12/16 04:40:15;;;;;;;;;;;;;;;;;;7390895;19;20280;-66
2021/12/16 04:42:47;;;;;;;;;;;;;;;;;;7391639;19;19926;-67
2021/12/16 04:45:17;;;;;;;;;;;;;;;;;;7391273;19;19926;-68
2021/12/16 04:47:46;;;;;;;;;;;;;;;;;;7390310;19;19922;-67
2021/12/16 04:50:14;;;;;;;;;;;;;;;;;;7390295;19;20335;-71
2021/12/16 04:52:41;;;;;;;;;;;;;;;;;;7392909;19;19930;-67
2021/12/16 04:55:12;;;;;;;;;;;;;;;;;;7390806;19;20279;-65
2021/12/16 04:57:40;;;;;;;;;;;;;;;;;;7390554;19;19911;-67
2021/12/16 05:00:09;;;;;;;;;;;;;;;;;;7390587;19;20249;-68
2021/12/16 05:02:42;;;;;;;;;;;;;;;;;;7390074;19;19943;-69
2021/12/16 05:05:25;;;;;;;;;;;;;;;;;;7391800;19;20302;-65
2021/12/16 05:07:53;;;;;;;;;;;;;;;;;;7391509;19;19915;-68
2021/12/16 05:10:35;;;;;;;;;;;;;;;;;;7390115;19;19919;-69
2021/12/16 05:13:21;;;;;;;;;;;;;;;;;;7387744;19;19926;-68
2021/12/16 05:15:49;;;;;;;;;;;;;;;;;;7390399;19;19919;-68
2021/12/16 05:18:23;;;;;;;;;;;;;;;;;;7390274;19;19925;-67
2021/12/16 05:20:55;;;;;;;;;;;;;;;;;;7390116;19;20332;-67
2021/12/16 05:28:38;;;;;;;;;;;;;;;;;;7389085;19;19974;-68
2021/12/16 05:31:06;;;;;;;;;;;;;;;;;;7389482;19;19918;-68
2021/12/16 05:33:38;;;;;;;;;;;;;;;;;;7389954;19;19911;-66
2021/12/16 05:36:06;;;;;;;;;;;;;;;;;;7391864;19;19923;-67
2021/12/16 05:38:34;;;;;;;;;;;;;;;;;;7389651;19;19915;-70
2021/12/16 05:41:06;;;;;;;;;;;;;;;;;;7388274;19;19923;-70
2021/12/16 05:43:37;;;;;;;;;;;;;;;;;;7389219;19;19918;-68
2021/12/16 05:46:05;;;;;;;;;;;;;;;;;;7389486;19;19919;-69
2021/12/16 05:48:35;;;;;;;;;;;;;;;;;;7388469;19;19923;-69
2021/12/16 05:51:04;;;;;;;;;;;;;;;;;;7389006;19;20347;-69
2021/12/16 05:53:33;;;;;;;;;;;;;;;;;;7389731;19;20020;-62
2021/12/16 05:56:04;;;;;;;;;;;;;;;;;;7388950;19;19980;-62
2021/12/16 05:58:36;;;;;;;;;;;;;;;;;;7388987;19;19970;-62
2021/12/16 06:01:07;;;;;;;;;;;;;;;;;;7390409;19;19914;-62
2021/12/16 06:03:35;;;;;;;;;;;;;;;;;;7388395;19;19921;-62
2021/12/16 06:06:03;;;;;;;;;;;;;;;;;;7388748;19;19914;-62
2021/12/16 06:08:31;;;;;;;;;;;;;;;;;;7387492;19;20274;-62
2021/12/16 06:13:39;;;;;;;;;;;;;;;;;;7390049;19;20268;-62
2021/12/16 06:27:06;;;;;;;;;;;;;;;;;;7397921;19;19931;-61
2021/12/16 06:29:36;;;;;;;;;;;;;;;;;;7395322;19;19919;-61
2021/12/16 06:32:04;;;;;;;;;;;;;;;;;;7396800;19;20354;-61
2021/12/16 06:34:32;;;;;;;;;;;;;;;;;;7397632;19;19944;-61
2021/12/16 06:37:00;;;;;;;;;;;;;;;;;;7400248;19;19932;-60
2021/12/16 06:39:28;;;;;;;;;;;;;;;;;;7394993;19;20167;-60
2021/12/16 06:42:24;;;;;;;;;;;;;;;;;;7396707;19;19918;-61
2021/12/16 06:45:04;;;;;;;;;;;;;;;;;;7395835;19;19915;-62
2021/12/16 06:47:43;;;;;;;;;;;;;;;;;;7396259;19;19944;-62
2021/12/16 06:50:14;;;;;;;;;;;;;;;;;;7396645;19;19911;-61
2021/12/16 06:52:47;;;;;;;;;;;;;;;;;;7396623;19;19930;-63
2021/12/16 06:55:29;;;;;;;;;;;;;;;;;;7396202;19;19943;-61
2021/12/16 06:58:07;;;;;;;;;;;;;;;;;;7396916;19;19991;-62
2021/12/16 07:00:41;;;;;;;;;;;;;;;;;;7396651;19;19922;-62
2021/12/16 07:03:17;;;;;;;;;;;;;;;;;;7396182;19;19915;-62
2021/12/16 07:05:46;;;;;;;;;;;;;;;;;;7395751;19;20366;-62
2021/12/16 07:08:16;;;;;;;;;;;;;;;;;;7398223;19;20271;-63
2021/12/16 07:10:45;;;;;;;;;;;;;;;;;;7395708;19;19919;-63
2021/12/16 07:13:19;;;;;;;;;;;;;;;;;;7395713;19;19918;-62
2021/12/16 07:15:47;;;;;;;;;;;;;;;;;;7395927;19;20332;-62
2021/12/16 07:18:15;;;;;;;;;;;;;;;;;;7395349;19;20325;-63
2021/12/16 07:20:42;;;;;;;;;;;;;;;;;;7395206;19;19917;-63
2021/12/16 07:23:10;;;;;;;;;;;;;;;;;;7394671;19;19907;-63
2021/12/16 07:25:37;;;;;;;;;;;;;;;;;;7395654;19;19934;-62
2021/12/16 07:28:07;;;;;;;;;;;;;;;;;;7394327;19;19926;-62
2021/12/16 07:30:38;;;;;;;;;;;;;;;;;;7395124;19;19930;-62
2021/12/16 07:33:06;;;;;;;;;;;;;;;;;;7394895;19;19915;-62
2021/12/16 07:35:34;;;;;;;;;;;;;;;;;;7394840;19;19986;-62
2021/12/16 07:38:02;;;;;;;;;;;;;;;;;;7393838;19;19926;-62
2021/12/16 07:40:31;;;;;;;;;;;;;;;;;;7392208;19;19923;-62
2021/12/16 07:45:28;;;;;;;;;;;;;;;;;;7394680;19;19919;-62
2021/12/16 07:47:55;;;;;;;;;;;;;;;;;;7394267;19;19935;-63
2021/12/16 07:50:23;;;;;;;;;;;;;;;;;;7394542;19;20395;-62
2021/12/16 07:52:50;;;;;;;;;;;;;;;;;;7394678;19;20267;-62
2021/12/16 07:55:18;;;;;;;;;;;;;;;;;;7397432;19;19963;-62
2021/12/16 07:57:45;;;;;;;;;;;;;;;;;;7394601;19;19911;-62
2021/12/16 08:00:15;;;;;;;;;;;;;;;;;;7394349;19;19922;-62
2021/12/16 08:02:43;;;;;;;;;;;;;;;;;;7393829;19;19939;-62
2021/12/16 08:05:10;;;;;;;;;;;;;;;;;;7394188;19;19938;-62
2021/12/16 08:07:38;;;;;;;;;;;;;;;;;;7393928;19;19915;-62
2021/12/16 08:10:07;;;;;;;;;;;;;;;;;;7391923;19;19915;-62
2021/12/16 08:12:34;;;;;;;;;;;;;;;;;;7394297;19;19918;-63
2021/12/16 08:15:02;;;;;;;;;;;;;;;;;;7394614;19;19915;-60
2021/12/16 08:17:29;;;;;;;;;;;;;;;;;;7393519;19;19911;-62
2021/12/16 08:19:56;;;;;;;;;;;;;;;;;;7394991;19;19943;-62
2021/12/16 08:22:24;;;;;;;;;;;;;;;;;;7393802;19;20312;-62
2021/12/16 08:24:51;;;;;;;;;;;;;;;;;;7393068;19;19915;-63
2021/12/16 08:27:19;;;;;;;;;;;;;;;;;;7393495;19;19919;-62
2021/12/16 08:29:46;;;;;;;;;;;;;;;;;;7390887;19;19942;-62
2021/12/16 08:32:13;;;;;;;;;;;;;;;;;;7393504;19;20340;-60
2021/12/16 08:34:45;;;;;;;;;;;;;;;;;;7391499;19;19911;-62
2021/12/16 08:37:14;;;;;;;;;;;;;;;;;;7396740;19;19911;-62
2021/12/16 08:39:42;;;;;;;;;;;;;;;;;;7389583;19;19925;-62
2021/12/16 08:42:10;;;;;;;;;;;;;;;;;;7392218;19;19925;-62
2021/12/16 08:44:38;;;;;;;;;;;;;;;;;;7392900;19;19935;-62
2021/12/16 08:47:07;;;;;;;;;;;;;;;;;;7392156;19;19911;-61
2021/12/16 08:49:35;;;;;;;;;;;;;;;;;;7391374;19;19923;-61
2021/12/16 08:52:06;;;;;;;;;;;;;;;;;;7392403;19;19947;-62
2021/12/16 08:54:34;;;;;;;;;;;;;;;;;;7392651;19;19919;-62
2021/12/16 08:57:02;;;;;;;;;;;;;;;;;;7391977;19;20356;-62
2021/12/16 08:59:29;;;;;;;;;;;;;;;;;;7392308;19;20367;-62
2021/12/16 09:01:57;;;;;;;;;;;;;;;;;;7392781;19;19926;-61
2021/12/16 09:04:25;;;;;;;;;;;;;;;;;;7391063;19;19914;-61
2021/12/16 09:06:54;;;;;;;;;;;;;;;;;;7392361;19;19934;-62
2021/12/16 09:09:21;;;;;;;;;;;;;;;;;;7388740;19;19946;-63
2021/12/16 09:12:13;;;;;;;;;;;;;;;;;;7392532;19;19926;-62
2021/12/16 09:14:41;;;;;;;;;;;;;;;;;;7392595;19;19928;-61
2021/12/16 09:17:12;;;;;;;;;;;;;;;;;;7394368;19;20643;-62
2021/12/16 09:19:41;;;;;;;;;;;;;;;;;;7391621;19;19979;-61
2021/12/16 09:22:10;;;;;;;;;;;;;;;;;;7391336;19;19919;-62
2021/12/16 09:24:37;;;;;;;;;;;;;;;;;;7391419;19;19911;-62
2021/12/16 09:27:05;;;;;;;;;;;;;;;;;;7389782;19;19918;-61
2021/12/16 09:29:32;;;;;;;;;;;;;;;;;;7388265;19;19967;-63
2021/12/16 09:32:02;;;;;;;;;;;;;;;;;;7391405;19;20361;-60
2021/12/16 09:34:33;;;;;;;;;;;;;;;;;;7391423;19;20344;-63
2021/12/16 09:37:00;;;;;;;;;;;;;;;;;;7394860;19;19922;-62
2021/12/16 09:39:27;;;;;;;;;;;;;;;;;;7390871;19;19919;-62
2021/12/16 09:41:57;;;;;;;;;;;;;;;;;;7389299;19;19923;-61
2021/12/16 09:44:25;;;;;;;;;;;;;;;;;;7391101;19;19959;-63
2021/12/16 09:46:55;;;;;;;;;;;;;;;;;;7391488;19;19925;-61
2021/12/16 09:49:22;;;;;;;;;;;;;;;;;;7388307;19;19918;-62
2021/12/16 09:51:51;;;;;;;;;;;;;;;;;;7391155;19;19923;-62
2021/12/16 09:54:21;;;;;;;;;;;;;;;;;;7390345;19;19974;-62
2021/12/16 09:56:49;;;;;;;;;;;;;;;;;;7390414;19;19941;-61
2021/12/16 09:59:17;;;;;;;;;;;;;;;;;;7390833;19;19922;-61
2021/12/16 10:01:47;;;;;;;;;;;;;;;;;;7398353;19;19919;-63
2021/12/16 10:04:19;;;;;;;;;;;;;;;;;;7398056;19;19914;-62
2021/12/16 10:06:51;;;;;;;;;;;;;;;;;;7397917;19;19934;-62
2021/12/16 10:09:19;;;;;;;;;;;;;;;;;;7396585;19;19919;-62
2021/12/16 10:11:47;;;;;;;;;;;;;;;;;;7397695;19;19915;-62
2021/12/16 10:14:30;;;;;;;;;;;;;;;;;;7397586;19;19941;-62
2021/12/16 10:19:44;;;;;;;;;;;;;;;;;;7398879;19;20383;-62
2021/12/16 10:22:17;;;;;;;;;;;;;;;;;;7397565;19;19914;-62
2021/12/16 10:24:45;;;;;;;;;;;;;;;;;;7397748;19;19978;-61
2021/12/16 10:27:17;;;;;;;;;;;;;;;;;;7399635;19;19922;-61
2021/12/16 10:29:45;;;;;;;;;;;;;;;;;;7395988;19;19929;-61
2021/12/16 10:32:31;;;;;;;;;;;;;;;;;;7397067;19;19915;-61
2021/12/16 10:34:59;;;;;;;;;;;;;;;;;;7397200;19;19911;-61
2021/12/16 10:37:31;;;;;;;;;;;;;;;;;;7401803;19;20355;-61
2021/12/16 10:40:24;;;;;;;;;;;;;;;;;;7396812;19;19922;-61
2021/12/16 10:42:52;;;;;;;;;;;;;;;;;;7399843;19;19911;-62
2021/12/16 10:45:29;;;;;;;;;;;;;;;;;;7396583;19;20200;-63
2021/12/16 10:48:18;;;;;;;;;;;;;;;;;;7396769;19;20332;-60
2021/12/16 10:50:47;;;;;;;;;;;;;;;;;;7394186;19;20021;-62
2021/12/16 10:53:15;;;;;;;;;;;;;;;;;;7396612;19;19915;-61
2021/12/16 10:55:58;;;;;;;;;;;;;;;;;;7396239;19;19922;-62
2021/12/16 10:58:52;;;;;;;;;;;;;;;;;;7396830;19;19942;-62
2021/12/16 11:01:34;;;;;;;;;;;;;;;;;;7395649;19;20260;-61
2021/12/16 11:04:03;;;;;;;;;;;;;;;;;;7395961;19;19919;-62
2021/12/16 11:06:32;;;;;;;;;;;;;;;;;;7398960;19;19926;-62
2021/12/16 11:09:18;;;;;;;;;;;;;;;;;;7395074;19;19911;-63
2021/12/16 11:11:45;;;;;;;;;;;;;;;;;;7396024;19;19929;-62
2021/12/16 11:14:12;;;;;;;;;;;;;;;;;;7395393;19;20364;-62
2021/12/16 11:16:43;;;;;;;;;;;;;;;;;;7394890;19;19915;-61
2021/12/16 11:19:30;;;;;;;;;;;;;;;;;;7394936;19;19915;-62
2021/12/16 11:22:02;;;;;;;;;;;;;;;;;;7395198;19;19921;-61
2021/12/16 11:24:29;;;;;;;;;;;;;;;;;;7395316;19;19923;-61
2021/12/16 11:26:57;;;;;;;;;;;;;;;;;;7397936;19;20018;-61
2021/12/16 11:29:31;;;;;;;;;;;;;;;;;;7397073;19;19919;-62
2021/12/16 11:31:58;;;;;;;;;;;;;;;;;;7391939;19;19924;-62
2021/12/16 11:34:27;;;;;;;;;;;;;;;;;;7395051;19;19914;-62
2021/12/16 11:36:54;;;;;;;;;;;;;;;;;;7398498;19;19915;-61
2021/12/16 11:39:27;;;;;;;;;;;;;;;;;;7394126;19;19919;-61
2021/12/16 11:41:57;;;;;;;;;;;;;;;;;;7393401;19;19921;-63
2021/12/16 11:44:28;;;;;;;;;;;;;;;;;;7395082;19;19930;-62
2021/12/16 11:47:14;;;;;;;;;;;;;;;;;;7394972;19;19936;-61
2021/12/16 11:49:44;;;;;;;;;;;;;;;;;;7392900;19;19922;-62
2021/12/16 11:52:26;;;;;;;;;;;;;;;;;;7394536;19;19982;-62
2021/12/16 11:55:11;;;;;;;;;;;;;;;;;;7395037;19;19918;-62
2021/12/16 11:57:44;;;;;;;;;;;;;;;;;;7394063;19;19918;-62
2021/12/16 12:00:16;;;;;;;;;;;;;;;;;;7393994;19;20340;-61
2021/12/16 12:02:48;;;;;;;;;;;;;;;;;;7394441;19;19918;-62
2021/12/16 12:05:42;;;;;;;;;;;;;;;;;;7394425;19;19915;-62
2021/12/16 12:08:29;;;;;;;;;;;;;;;;;;7393948;19;19919;-62
2021/12/16 12:11:00;;;;;;;;;;;;;;;;;;7392860;19;19923;-62
2021/12/16 12:13:27;;;;;;;;;;;;;;;;;;7394284;19;19921;-62
2021/12/16 12:16:07;;;;;;;;;;;;;;;;;;7394011;19;19919;-62
2021/12/16 12:18:37;;;;;;;;;;;;;;;;;;7393410;19;19915;-61
2021/12/16 12:21:22;;;;;;;;;;;;;;;;;;7393467;19;19942;-62
2021/12/16 12:23:52;;;;;;;;;;;;;;;;;;7392226;19;20390;-62
2021/12/16 12:26:20;;;;;;;;;;;;;;;;;;7392775;19;19982;-61
2021/12/16 12:28:50;;;;;;;;;;;;;;;;;;7393062;19;19979;-61
2021/12/16 12:31:19;;;;;;;;;;;;;;;;;;7392771;19;19919;-60
2021/12/16 12:33:46;;;;;;;;;;;;;;;;;;7389854;19;19951;-60
2021/12/16 12:36:15;;;;;;;;;;;;;;;;;;7395044;19;19915;-61
2021/12/16 12:38:43;;;;;;;;;;;;;;;;;;7392533;19;19911;-61
2021/12/16 12:41:10;;;;;;;;;;;;;;;;;;7391139;19;19918;-61
2021/12/16 12:43:37;;;;;;;;;;;;;;;;;;7392714;19;19919;-61
2021/12/16 12:46:07;;;;;;;;;;;;;;;;;;7391989;19;19925;-61
2021/12/16 12:48:36;;;;;;;;;;;;;;;;;;7392942;19;19986;-60
2021/12/16 12:51:05;;;;;;;;;;;;;;;;;;7390529;19;19923;-60
2021/12/16 12:53:34;;;;;;;;;;;;;;;;;;7392674;19;19939;-60
2021/12/16 12:56:15;;;;;;;;;;;;;;;;;;7392404;19;19918;-61
2021/12/16 12:58:50;;;;;;;;;;;;;;;;;;7392383;19;20023;-60
2021/12/16 13:01:18;;;;;;;;;;;;;;;;;;7392060;19;20410;-60
2021/12/16 13:03:45;;;;;;;;;;;;;;;;;;7392000;19;19945;-61
2021/12/16 13:06:14;;;;;;;;;;;;;;;;;;7392420;19;19926;-60
2021/12/16 13:08:47;;;;;;;;;;;;;;;;;;7390514;19;19914;-60
2021/12/16 13:11:16;;;;;;;;;;;;;;;;;;7390236;19;20228;-61
2021/12/16 13:14:03;;;;;;;;;;;;;;;;;;7391846;19;19911;-61
2021/12/16 13:27:47;;;;;;;;;;;;;;;;;;7390918;19;19943;-61
2021/12/16 13:30:26;;;;;;;;;;;;;;;;;;7390317;19;19911;-60
2021/12/16 13:33:18;;;;;;;;;;;;;;;;;;7390021;19;19915;-61
2021/12/16 13:35:50;;;;;;;;;;;;;;;;;;7397152;19;19915;-61
2021/12/16 13:38:19;;;;;;;;;;;;;;;;;;7398649;19;19928;-60
2021/12/16 13:40:47;;;;;;;;;;;;;;;;;;7396148;19;20356;-61
2021/12/16 13:43:18;;;;;;;;;;;;;;;;;;7395591;19;19915;-61
2021/12/16 13:46:31;;;;;;;;;;;;;;;;;;7395412;19;19919;-62
2021/12/16 14:03:04;;;;;;;;;;;;;;;;;;7395333;19;19942;-61
2021/12/16 14:05:38;;;;;;;;;;;;;;;;;;7395364;19;19914;-62
2021/12/16 14:08:07;;;;;;;;;;;;;;;;;;7395636;19;19911;-60
2021/12/16 14:10:47;;;;;;;;;;;;;;;;;;7393888;19;19919;-60
2021/12/16 14:15:56;;;;;;;;;;;;;;;;;;7393960;19;19911;-60
2021/12/16 14:23:02;;;;;;;;;;;;;;;;;;7394851;19;20328;-60
2021/12/16 14:24:23;;;;;;;;;;;;;;;;;;7395619;19;19944;-61
2021/12/16 14:27:06;;;;;;;;;;;;;;;;;;7394712;19;19990;-61
2021/12/16 14:33:39;;;;;;;;;;;;;;;;;;7395139;19;19915;-61
2021/12/16 14:35:46;;;;;;;;;;;;;;;;;;7395185;19;19966;-61
2021/12/16 14:41:38;;;;;;;;;;;;;;;;;;7394233;19;19923;-60
2021/12/16 14:47:14;;;;;;;;;;;;;;;;;;7395146;19;19926;-60
2021/12/16 14:49:43;;;;;;;;;;;;;;;;;;7395916;19;20235;-61
2021/12/16 14:52:15;;;;;;;;;;;;;;;;;;7395735;19;19926;-61
2021/12/16 14:54:50;;;;;;;;;;;;;;;;;;7396322;19;19915;-60
2021/12/16 14:57:26;;;;;;;;;;;;;;;;;;7395851;19;19919;-61
2021/12/16 14:59:53;;;;;;;;;;;;;;;;;;7395940;19;19919;-60
2021/12/16 15:02:25;;;;;;;;;;;;;;;;;;7395992;19;19922;-60
2021/12/16 15:04:52;;;;;;;;;;;;;;;;;;7396596;19;19914;-60
2021/12/16 15:07:21;;;;;;;;;;;;;;;;;;7395784;19;19923;-60
2021/12/16 15:09:48;;;;;;;;;;;;;;;;;;7395345;19;20396;-60
2021/12/16 15:12:26;;;;;;;;;;;;;;;;;;7396000;19;19914;-60
2021/12/16 15:37:54;;;;;;;;;;;;;;;;;;7399301;19;19930;-60
2021/12/16 15:40:33;;;;;;;;;;;;;;;;;;7394158;19;19922;-60
2021/12/16 15:43:03;;;;;;;;;;;;;;;;;;7394533;19;19915;-60
2021/12/16 15:45:36;;;;;;;;;;;;;;;;;;7393501;19;19926;-59
2021/12/16 15:48:15;;;;;;;;;;;;;;;;;;7394616;19;19923;-62
2021/12/16 15:50:45;;;;;;;;;;;;;;;;;;7393195;19;19938;-61
2021/12/16 15:53:15;;;;;;;;;;;;;;;;;;7394035;19;19915;-61
2021/12/16 15:55:48;;;;;;;;;;;;;;;;;;7393832;19;20331;-60
2021/12/16 15:58:20;;;;;;;;;;;;;;;;;;7392173;19;19974;-61
2021/12/16 16:00:50;;;;;;;;;;;;;;;;;;7394098;19;19936;-60
2021/12/16 16:03:18;;;;;;;;;;;;;;;;;;7394471;19;19919;-58
2021/12/16 16:05:48;;;;;;;;;;;;;;;;;;7394532;19;19966;-60
2021/12/16 16:08:17;;;;;;;;;;;;;;;;;;7393612;19;19925;-60
2021/12/16 16:10:45;;;;;;;;;;;;;;;;;;7391659;19;19930;-61
2021/12/16 16:13:15;;;;;;;;;;;;;;;;;;7393769;19;19911;-62
2021/12/16 16:15:43;;;;;;;;;;;;;;;;;;7393689;19;19954;-60
2021/12/16 16:18:33;;;;;;;;;;;;;;;;;;7392958;19;20344;-60
2021/12/16 16:21:12;;;;;;;;;;;;;;;;;;7392702;19;19917;-61
2021/12/16 16:23:42;;;;;;;;;;;;;;;;;;7393995;19;19929;-60
2021/12/16 16:26:10;;;;;;;;;;;;;;;;;;7393366;19;19926;-61
2021/12/16 16:28:39;;;;;;;;;;;;;;;;;;7393679;19;19915;-62
2021/12/16 16:31:12;;;;;;;;;;;;;;;;;;7391326;19;19911;-61
2021/12/16 16:33:40;;;;;;;;;;;;;;;;;;7394064;19;19950;-60
2021/12/16 16:36:09;;;;;;;;;;;;;;;;;;7394035;19;20367;-61
2021/12/16 16:38:38;;;;;;;;;;;;;;;;;;7393429;19;19923;-61
2021/12/16 16:41:09;;;;;;;;;;;;;;;;;;7391634;19;19919;-58
2021/12/16 16:43:42;;;;;;;;;;;;;;;;;;7383917;19;19927;-60
2021/12/16 16:46:11;;;;;;;;;;;;;;;;;;7390262;19;19951;-63
2021/12/16 16:48:49;;;;;;;;;;;;;;;;;;7394361;19;19923;-61
2021/12/16 16:51:19;;;;;;;;;;;;;;;;;;7391128;19;19914;-61
2021/12/16 16:53:54;;;;;;;;;;;;;;;;;;7391550;19;19978;-61
2021/12/16 16:56:43;;;;;;;;;;;;;;;;;;7388655;19;19923;-61
2021/12/16 16:59:12;;;;;;;;;;;;;;;;;;7388021;19;19987;-61
2021/12/16 17:01:41;;;;;;;;;;;;;;;;;;7392856;19;20026;-62
2021/12/16 17:04:10;;;;;;;;;;;;;;;;;;7391661;19;20331;-61
2021/12/16 17:06:41;;;;;;;;;;;;;;;;;;7391774;19;19914;-61
2021/12/16 17:09:08;;;;;;;;;;;;;;;;;;7392302;19;19931;-60
2021/12/16 17:11:40;;;;;;;;;;;;;;;;;;7391176;19;19919;-61
2021/12/16 17:14:19;;;;;;;;;;;;;;;;;;7392172;19;19919;-60
2021/12/16 17:19:36;;;;;;;;;;;;;;;;;;7392376;19;19915;-60
2021/12/16 17:22:09;;;;;;;;;;;;;;;;;;7392203;19;19915;-61
2021/12/16 17:24:41;;;;;;;;;;;;;;;;;;7391829;19;19918;-61
2021/12/16 17:27:09;;;;;;;;;;;;;;;;;;7391753;19;19986;-61
2021/12/16 17:29:38;;;;;;;;;;;;;;;;;;7391505;19;20021;-61
2021/12/16 17:32:11;;;;;;;;;;;;;;;;;;7389696;19;19915;-61
2021/12/16 17:35:06;;;;;;;;;;;;;;;;;;7391963;19;19915;-61
2021/12/16 17:37:35;;;;;;;;;;;;;;;;;;7390692;19;19918;-61
2021/12/16 17:40:08;;;;;;;;;;;;;;;;;;7390805;19;19982;-61
2021/12/16 17:42:42;;;;;;;;;;;;;;;;;;7391348;19;20336;-61
2021/12/16 17:45:21;;;;;;;;;;;;;;;;;;7391256;19;19986;-61
2021/12/16 17:47:49;;;;;;;;;;;;;;;;;;7390829;19;19967;-60
2021/12/16 17:50:21;;;;;;;;;;;;;;;;;;7390679;19;19949;-61
2021/12/16 17:52:50;;;;;;;;;;;;;;;;;;7391315;19;19922;-61
2021/12/16 17:55:19;;;;;;;;;;;;;;;;;;7391180;19;19919;-60
2021/12/16 17:57:47;;;;;;;;;;;;;;;;;;7391096;19;19932;-61
2021/12/16 18:00:35;;;;;;;;;;;;;;;;;;7390846;19;19914;-60
2021/12/16 18:03:03;;;;;;;;;;;;;;;;;;7391038;19;19911;-61
2021/12/16 18:05:41;;;;;;;;;;;;;;;;;;7391103;19;19946;-61
2021/12/16 18:08:08;;;;;;;;;;;;;;;;;;7390535;19;19915;-61
2021/12/16 18:10:36;;;;;;;;;;;;;;;;;;7389677;19;20266;-61
2021/12/16 18:13:10;;;;;;;;;;;;;;;;;;7388174;19;19926;-61
2021/12/16 18:15:37;;;;;;;;;;;;;;;;;;7392335;19;19915;-61
2021/12/16 18:18:08;;;;;;;;;;;;;;;;;;7390287;19;20262;-60
2021/12/16 18:20:39;;;;;;;;;;;;;;;;;;7391629;19;19966;-60
2021/12/16 18:23:07;;;;;;;;;;;;;;;;;;7397512;19;20288;-60
2021/12/16 18:25:37;;;;;;;;;;;;;;;;;;7397561;19;19918;-60
2021/12/16 18:28:04;;;;;;;;;;;;;;;;;;7397370;19;19919;-60
2021/12/16 18:30:44;;;;;;;;;;;;;;;;;;7396988;19;19911;-61
2021/12/16 18:33:12;;;;;;;;;;;;;;;;;;7397057;19;19915;-61
2021/12/16 18:35:45;;;;;;;;;;;;;;;;;;7397919;19;19918;-61
2021/12/16 18:38:25;;;;;;;;;;;;;;;;;;7396850;19;19919;-60
2021/12/16 18:40:53;;;;;;;;;;;;;;;;;;7395934;19;19918;-61
2021/12/16 18:43:25;;;;;;;;;;;;;;;;;;7396170;19;19919;-61
2021/12/16 18:45:53;;;;;;;;;;;;;;;;;;7395138;19;20279;-61
2021/12/16 18:48:31;;;;;;;;;;;;;;;;;;7396995;19;19938;-61
2021/12/16 18:56:22;;;;;;;;;;;;;;;;;;7397214;19;19926;-60
2021/12/16 18:58:49;;;;;;;;;;;;;;;;;;7395930;19;20390;-61
2021/12/16 19:01:19;;;;;;;;;;;;;;;;;;7396450;19;19942;-60
2021/12/16 19:03:46;;;;;;;;;;;;;;;;;;7396109;19;19930;-61
2021/12/16 19:06:17;;;;;;;;;;;;;;;;;;7397322;19;19919;-61
2021/12/16 19:08:44;;;;;;;;;;;;;;;;;;7396226;19;19915;-60
2021/12/16 19:11:13;;;;;;;;;;;;;;;;;;7395345;19;19919;-60
2021/12/16 19:13:44;;;;;;;;;;;;;;;;;;7395481;19;19943;-60
2021/12/16 19:16:13;;;;;;;;;;;;;;;;;;7395954;19;19918;-60
2021/12/16 19:18:41;;;;;;;;;;;;;;;;;;7396179;19;19947;-61
2021/12/16 19:21:30;;;;;;;;;;;;;;;;;;7396245;19;19944;-60
2021/12/16 19:23:57;;;;;;;;;;;;;;;;;;7395374;19;19919;-60
2021/12/16 19:26:25;;;;;;;;;;;;;;;;;;7395203;19;19926;-61
2021/12/16 19:28:52;;;;;;;;;;;;;;;;;;7395478;19;19919;-61
2021/12/16 19:31:21;;;;;;;;;;;;;;;;;;7394226;19;19923;-60
2021/12/16 19:33:50;;;;;;;;;;;;;;;;;;7392749;19;19915;-60
2021/12/16 19:36:18;;;;;;;;;;;;;;;;;;7397248;19;19919;-60
2021/12/16 19:38:45;;;;;;;;;;;;;;;;;;7394835;19;19907;-60
2021/12/16 19:41:14;;;;;;;;;;;;;;;;;;7391957;19;19922;-60
2021/12/16 19:43:43;;;;;;;;;;;;;;;;;;7396204;19;19915;-60
2021/12/16 19:46:10;;;;;;;;;;;;;;;;;;7394849;19;19915;-60
2021/12/16 19:48:39;;;;;;;;;;;;;;;;;;7394699;19;19919;-60
2021/12/16 19:51:09;;;;;;;;;;;;;;;;;;7393523;19;19915;-60
2021/12/16 19:53:37;;;;;;;;;;;;;;;;;;7394630;19;19917;-60
2021/12/16 19:56:07;;;;;;;;;;;;;;;;;;7395121;19;19942;-60
2021/12/16 19:58:34;;;;;;;;;;;;;;;;;;7394754;19;19919;-60
2021/12/16 20:01:11;;;;;;;;;;;;;;;;;;7394321;19;19914;-60
2021/12/16 20:03:40;;;;;;;;;;;;;;;;;;7393776;19;20339;-60
2021/12/16 20:06:09;;;;;;;;;;;;;;;;;;7396561;19;19919;-60
2021/12/16 20:08:41;;;;;;;;;;;;;;;;;;7394705;19;19919;-60
2021/12/16 20:11:11;;;;;;;;;;;;;;;;;;7393243;19;19918;-60
2021/12/16 20:13:39;;;;;;;;;;;;;;;;;;7394042;19;19910;-60
2021/12/16 20:16:09;;;;;;;;;;;;;;;;;;7393746;19;20328;-60
2021/12/16 20:18:37;;;;;;;;;;;;;;;;;;7394094;19;19921;-60
2021/12/16 20:21:16;;;;;;;;;;;;;;;;;;7394046;19;19918;-60
2021/12/16 20:23:44;;;;;;;;;;;;;;;;;;7393832;19;19911;-60
2021/12/16 20:26:13;;;;;;;;;;;;;;;;;;7393729;19;20352;-60
2021/12/16 20:28:41;;;;;;;;;;;;;;;;;;7392904;19;19918;-60
2021/12/16 20:31:10;;;;;;;;;;;;;;;;;;7392792;19;19932;-60
2021/12/16 20:33:39;;;;;;;;;;;;;;;;;;7393359;19;20272;-59
2021/12/16 20:36:09;;;;;;;;;;;;;;;;;;7395169;19;19946;-61
2021/12/16 20:38:39;;;;;;;;;;;;;;;;;;7393363;19;20331;-60
2021/12/16 20:41:09;;;;;;;;;;;;;;;;;;7392269;19;19988;-60
2021/12/16 20:43:39;;;;;;;;;;;;;;;;;;7393168;19;19915;-60
2021/12/16 20:46:11;;;;;;;;;;;;;;;;;;7393162;19;19922;-60
2021/12/16 20:48:42;;;;;;;;;;;;;;;;;;7392758;19;20336;-60
2021/12/16 20:51:13;;;;;;;;;;;;;;;;;;7392334;19;19919;-60
2021/12/16 20:53:42;;;;;;;;;;;;;;;;;;7392508;19;19923;-60
2021/12/16 20:56:09;;;;;;;;;;;;;;;;;;7392748;19;19943;-60
2021/12/16 20:58:42;;;;;;;;;;;;;;;;;;7392647;19;19910;-59
2021/12/16 21:01:12;;;;;;;;;;;;;;;;;;7392613;19;19915;-60
2021/12/16 21:03:40;;;;;;;;;;;;;;;;;;7392561;19;19939;-60
2021/12/16 21:06:09;;;;;;;;;;;;;;;;;;7392307;19;19925;-59